sensor_id;sensor_type;location;lat;lon;timestamp;pressure;altitude;pressure_sealevel;temperature;humidity
63691;BME280;49837;57.280;27.070;2023-09-19T00:00:02;99968.97;;;11.6;100.0
63691;BME280;49837;57.280;27.070;2023-09-19T00:01:02;99967.83;;;11.61;100.0
63691;BME280;49837;57.280;27.070;2023-09-19T00:02:03;99963.39;;;11.61;100.0
63691;BME280;49837;57.280;27.070;2023-09-19T00:03:03;99967.05;;;11.64;100.0
63691;BME280;49837;57.280;27.070;2023-09-19T00:04:04;99965.45;;;11.69;100.0
63691;BME280;49837;57.280;27.070;2023-09-19T00:05:04;99964.05;;;11.69;100.0
63691;BME280;49837;57.280;27.070;2023-09-19T00:06:05;99962.98;;;11.68;100.0
63691;BME280;49837;57.280;27.070;2023-09-19T00:07:05;99961.08;;;11.7;100.0
63691;BME280;49837;57.280;27.070;2023-09-19T00:08:05;99959.67;;;11.72;100.0
63691;BME280;49837;57.280;27.070;2023-09-19T00:09:06;99957.02;;;11.73;100.0
63691;BME280;49837;57.280;27.070;2023-09-19T00:10:07;99958.92;;;11.74;100.0
63691;BME280;49837;57.280;27.070;2023-09-19T00:11:06;99957.58;;;11.76;100.0
63691;BME280;49837;57.280;27.070;2023-09-19T00:12:07;99959.89;;;11.79;100.0
63691;BME280;49837;57.280;27.070;2023-09-19T00:13:09;99957.58;;;11.83;100.0
63691;BME280;49837;57.280;27.070;2023-09-19T00:14:08;99959.34;;;11.82;100.0
63691;BME280;49837;57.280;27.070;2023-09-19T00:15:09;99958.1;;;11.84;100.0
63691;BME280;49837;57.280;27.070;2023-09-19T00:16:10;99952.31;;;11.85;100.0
63691;BME280;49837;57.280;27.070;2023-09-19T00:17:09;99954.22;;;11.86;100.0
63691;BME280;49837;57.280;27.070;2023-09-19T00:18:10;99955.52;;;11.86;100.0
63691;BME280;49837;57.280;27.070;2023-09-19T00:19:10;99954.62;;;11.86;100.0
63691;BME280;49837;57.280;27.070;2023-09-19T00:20:11;99953.42;;;11.85;100.0
63691;BME280;49837;57.280;27.070;2023-09-19T00:21:11;99956.8;;;11.86;100.0
63691;BME280;49837;57.280;27.070;2023-09-19T00:22:11;99951.11;;;11.86;100.0
63691;BME280;49837;57.280;27.070;2023-09-19T00:23:12;99955.05;;;11.88;100.0
63691;BME280;49837;57.280;27.070;2023-09-19T00:24:12;99951.87;;;11.88;100.0
63691;BME280;49837;57.280;27.070;2023-09-19T00:25:13;99953.41;;;11.87;100.0
63691;BME280;49837;57.280;27.070;2023-09-19T00:26:14;99955.31;;;11.87;100.0
63691;BME280;49837;57.280;27.070;2023-09-19T00:27:14;99946.56;;;11.85;100.0
63691;BME280;49837;57.280;27.070;2023-09-19T00:28:15;99948.61;;;11.84;100.0
63691;BME280;49837;57.280;27.070;2023-09-19T00:29:15;99948.02;;;11.81;100.0
63691;BME280;49837;57.280;27.070;2023-09-19T00:30:16;99952.48;;;11.78;100.0
63691;BME280;49837;57.280;27.070;2023-09-19T00:31:16;99950.81;;;11.78;100.0
63691;BME280;49837;57.280;27.070;2023-09-19T00:32:16;99952.14;;;11.81;100.0
63691;BME280;49837;57.280;27.070;2023-09-19T00:33:17;99949.66;;;11.83;100.0
63691;BME280;49837;57.280;27.070;2023-09-19T00:34:18;99947.34;;;11.84;100.0
63691;BME280;49837;57.280;27.070;2023-09-19T00:35:19;99950.16;;;11.83;100.0
63691;BME280;49837;57.280;27.070;2023-09-19T00:36:19;99943.63;;;11.76;100.0
63691;BME280;49837;57.280;27.070;2023-09-19T00:37:19;99942.89;;;11.71;100.0
63691;BME280;49837;57.280;27.070;2023-09-19T00:38:21;99941.88;;;11.67;100.0
63691;BME280;49837;57.280;27.070;2023-09-19T00:39:20;99935.36;;;11.6;100.0
63691;BME280;49837;57.280;27.070;2023-09-19T00:40:20;99936.45;;;11.56;100.0
63691;BME280;49837;57.280;27.070;2023-09-19T00:41:21;99939.34;;;11.57;100.0
63691;BME280;49837;57.280;27.070;2023-09-19T00:42:22;99937.16;;;11.55;100.0
63691;BME280;49837;57.280;27.070;2023-09-19T00:43:22;99937.22;;;11.56;100.0
63691;BME280;49837;57.280;27.070;2023-09-19T00:44:22;99932.02;;;11.54;100.0
63691;BME280;49837;57.280;27.070;2023-09-19T00:45:23;99932.22;;;11.53;100.0
63691;BME280;49837;57.280;27.070;2023-09-19T00:46:23;99939.44;;;11.52;100.0
63691;BME280;49837;57.280;27.070;2023-09-19T00:47:23;99936.45;;;11.54;100.0
63691;BME280;49837;57.280;27.070;2023-09-19T00:48:24;99936.49;;;11.52;100.0
63691;BME280;49837;57.280;27.070;2023-09-19T00:49:24;99941.0;;;11.53;100.0
63691;BME280;49837;57.280;27.070;2023-09-19T00:50:26;99935.98;;;11.53;100.0
63691;BME280;49837;57.280;27.070;2023-09-19T00:51:26;99939.36;;;11.54;100.0
63691;BME280;49837;57.280;27.070;2023-09-19T00:52:27;99932.28;;;11.53;100.0
63691;BME280;49837;57.280;27.070;2023-09-19T00:53:26;99932.81;;;11.53;100.0
63691;BME280;49837;57.280;27.070;2023-09-19T00:54:26;99932.86;;;11.52;100.0
63691;BME280;49837;57.280;27.070;2023-09-19T00:55:29;99929.62;;;11.51;100.0
63691;BME280;49837;57.280;27.070;2023-09-19T00:56:28;99927.86;;;11.49;100.0
63691;BME280;49837;57.280;27.070;2023-09-19T00:57:28;99929.3;;;11.49;100.0
63691;BME280;49837;57.280;27.070;2023-09-19T00:58:28;99930.5;;;11.47;100.0
63691;BME280;49837;57.280;27.070;2023-09-19T00:59:29;99927.21;;;11.44;100.0
63691;BME280;49837;57.280;27.070;2023-09-19T01:00:29;99922.81;;;11.41;100.0
63691;BME280;49837;57.280;27.070;2023-09-19T01:01:30;99922.72;;;11.39;100.0
63691;BME280;49837;57.280;27.070;2023-09-19T01:02:31;99916.38;;;11.39;100.0
63691;BME280;49837;57.280;27.070;2023-09-19T01:03:31;99919.52;;;11.37;100.0
63691;BME280;49837;57.280;27.070;2023-09-19T01:04:31;99914.97;;;11.38;100.0
63691;BME280;49837;57.280;27.070;2023-09-19T01:05:33;99916.95;;;11.37;100.0
63691;BME280;49837;57.280;27.070;2023-09-19T01:06:32;99913.59;;;11.33;100.0
63691;BME280;49837;57.280;27.070;2023-09-19T01:07:32;99913.4;;;11.31;100.0
63691;BME280;49837;57.280;27.070;2023-09-19T01:08:33;99916.2;;;11.3;100.0
63691;BME280;49837;57.280;27.070;2023-09-19T01:09:33;99911.64;;;11.29;100.0
63691;BME280;49837;57.280;27.070;2023-09-19T01:10:33;99912.78;;;11.27;100.0
63691;BME280;49837;57.280;27.070;2023-09-19T01:11:38;99911.05;;;11.25;100.0
63691;BME280;49837;57.280;27.070;2023-09-19T01:13:50;99905.45;;;11.23;100.0
63691;BME280;49837;57.280;27.070;2023-09-19T01:14:46;99907.92;;;11.21;100.0
63691;BME280;49837;57.280;27.070;2023-09-19T01:16:56;99904.88;;;11.22;100.0
63691;BME280;49837;57.280;27.070;2023-09-19T01:18:03;99903.97;;;11.26;100.0
63691;BME280;49837;57.280;27.070;2023-09-19T01:30:13;99887.06;;;11.19;100.0
63691;BME280;49837;57.280;27.070;2023-09-19T01:31:12;99884.12;;;11.19;100.0
63691;BME280;49837;57.280;27.070;2023-09-19T01:32:14;99882.94;;;11.22;100.0
63691;BME280;49837;57.280;27.070;2023-09-19T01:33:13;99882.81;;;11.21;100.0
63691;BME280;49837;57.280;27.070;2023-09-19T01:34:13;99875.08;;;11.18;100.0
63691;BME280;49837;57.280;27.070;2023-09-19T01:35:14;99874.32;;;11.16;100.0
63691;BME280;49837;57.280;27.070;2023-09-19T01:36:14;99874.78;;;11.17;100.0
63691;BME280;49837;57.280;27.070;2023-09-19T01:37:16;99870.85;;;11.15;100.0
63691;BME280;49837;57.280;27.070;2023-09-19T01:38:15;99865.98;;;11.13;100.0
63691;BME280;49837;57.280;27.070;2023-09-19T01:39:16;99870.09;;;11.13;100.0
63691;BME280;49837;57.280;27.070;2023-09-19T01:40:18;99869.21;;;11.16;100.0
63691;BME280;49837;57.280;27.070;2023-09-19T01:43:30;99860.84;;;11.12;100.0
63691;BME280;49837;57.280;27.070;2023-09-19T01:46:33;99857.78;;;11.11;100.0
63691;BME280;49837;57.280;27.070;2023-09-19T01:52:48;99861.86;;;11.19;100.0
63691;BME280;49837;57.280;27.070;2023-09-19T01:55:57;99858.64;;;11.28;100.0
63691;BME280;49837;57.280;27.070;2023-09-19T01:58:06;99859.04;;;11.36;100.0
63691;BME280;49837;57.280;27.070;2023-09-19T01:59:04;99860.23;;;11.4;100.0
63691;BME280;49837;57.280;27.070;2023-09-19T02:00:07;99854.72;;;11.4;100.0
63691;BME280;49837;57.280;27.070;2023-09-19T02:01:06;99852.75;;;11.39;100.0
63691;BME280;49837;57.280;27.070;2023-09-19T02:02:06;99845.9;;;11.33;100.0
63691;BME280;49837;57.280;27.070;2023-09-19T02:03:06;99846.45;;;11.29;100.0
63691;BME280;49837;57.280;27.070;2023-09-19T02:04:07;99844.3;;;11.27;100.0
63691;BME280;49837;57.280;27.070;2023-09-19T02:05:07;99844.09;;;11.21;100.0
63691;BME280;49837;57.280;27.070;2023-09-19T02:06:07;99838.73;;;11.17;100.0
63691;BME280;49837;57.280;27.070;2023-09-19T02:07:08;99837.49;;;11.09;100.0
63691;BME280;49837;57.280;27.070;2023-09-19T02:08:08;99841.68;;;11.05;100.0
63691;BME280;49837;57.280;27.070;2023-09-19T02:09:08;99838.44;;;11.04;100.0
63691;BME280;49837;57.280;27.070;2023-09-19T02:10:09;99837.34;;;11.05;100.0
63691;BME280;49837;57.280;27.070;2023-09-19T02:11:09;99837.31;;;11.01;100.0
63691;BME280;49837;57.280;27.070;2023-09-19T02:12:10;99836.32;;;11.0;100.0
63691;BME280;49837;57.280;27.070;2023-09-19T02:13:10;99837.98;;;11.0;100.0
63691;BME280;49837;57.280;27.070;2023-09-19T02:14:10;99835.86;;;11.0;100.0
63691;BME280;49837;57.280;27.070;2023-09-19T02:15:11;99826.84;;;10.99;100.0
63691;BME280;49837;57.280;27.070;2023-09-19T02:16:11;99830.58;;;11.0;100.0
63691;BME280;49837;57.280;27.070;2023-09-19T02:17:12;99833.69;;;10.99;100.0
63691;BME280;49837;57.280;27.070;2023-09-19T02:18:13;99834.8;;;10.99;100.0
63691;BME280;49837;57.280;27.070;2023-09-19T02:19:13;99831.59;;;10.98;100.0
63691;BME280;49837;57.280;27.070;2023-09-19T02:20:13;99833.03;;;10.97;100.0
63691;BME280;49837;57.280;27.070;2023-09-19T02:21:13;99831.3;;;10.96;100.0
63691;BME280;49837;57.280;27.070;2023-09-19T02:22:14;99824.66;;;10.96;100.0
63691;BME280;49837;57.280;27.070;2023-09-19T02:23:14;99825.99;;;10.95;100.0
63691;BME280;49837;57.280;27.070;2023-09-19T02:24:15;99827.22;;;10.96;100.0
63691;BME280;49837;57.280;27.070;2023-09-19T02:25:15;99826.12;;;10.97;100.0
63691;BME280;49837;57.280;27.070;2023-09-19T02:26:16;99819.39;;;10.96;100.0
63691;BME280;49837;57.280;27.070;2023-09-19T02:27:16;99818.59;;;10.94;100.0
63691;BME280;49837;57.280;27.070;2023-09-19T02:28:16;99814.69;;;10.92;100.0
63691;BME280;49837;57.280;27.070;2023-09-19T02:29:17;99812.89;;;10.91;100.0
63691;BME280;49837;57.280;27.070;2023-09-19T02:30:17;99812.12;;;10.92;100.0
63691;BME280;49837;57.280;27.070;2023-09-19T02:31:18;99810.3;;;10.89;100.0
63691;BME280;49837;57.280;27.070;2023-09-19T02:32:18;99811.81;;;10.86;100.0
63691;BME280;49837;57.280;27.070;2023-09-19T02:33:19;99811.41;;;10.86;100.0
63691;BME280;49837;57.280;27.070;2023-09-19T02:34:19;99801.67;;;10.85;100.0
63691;BME280;49837;57.280;27.070;2023-09-19T02:35:20;99804.03;;;10.87;100.0
63691;BME280;49837;57.280;27.070;2023-09-19T02:36:20;99801.48;;;10.88;100.0
63691;BME280;49837;57.280;27.070;2023-09-19T02:37:20;99800.38;;;10.91;100.0
63691;BME280;49837;57.280;27.070;2023-09-19T02:38:21;99796.45;;;10.96;100.0
63691;BME280;49837;57.280;27.070;2023-09-19T02:39:21;99789.02;;;10.93;100.0
63691;BME280;49837;57.280;27.070;2023-09-19T02:40:22;99788.86;;;10.93;100.0
63691;BME280;49837;57.280;27.070;2023-09-19T02:41:22;99789.22;;;10.93;100.0
63691;BME280;49837;57.280;27.070;2023-09-19T02:42:22;99786.78;;;10.93;100.0
63691;BME280;49837;57.280;27.070;2023-09-19T02:43:23;99789.91;;;10.97;100.0
63691;BME280;49837;57.280;27.070;2023-09-19T02:44:23;99791.56;;;10.99;100.0
63691;BME280;49837;57.280;27.070;2023-09-19T02:45:24;99786.59;;;10.98;100.0
63691;BME280;49837;57.280;27.070;2023-09-19T02:46:24;99785.64;;;10.97;100.0
63691;BME280;49837;57.280;27.070;2023-09-19T02:47:25;99784.67;;;10.96;100.0
63691;BME280;49837;57.280;27.070;2023-09-19T02:48:25;99784.05;;;10.94;100.0
63691;BME280;49837;57.280;27.070;2023-09-19T02:49:25;99782.24;;;10.94;100.0
63691;BME280;49837;57.280;27.070;2023-09-19T02:50:26;99780.17;;;10.96;100.0
63691;BME280;49837;57.280;27.070;2023-09-19T02:51:27;99782.22;;;10.99;100.0
63691;BME280;49837;57.280;27.070;2023-09-19T02:52:27;99780.25;;;11.0;100.0
63691;BME280;49837;57.280;27.070;2023-09-19T02:53:27;99779.41;;;11.0;100.0
63691;BME280;49837;57.280;27.070;2023-09-19T02:54:28;99780.06;;;11.03;100.0
63691;BME280;49837;57.280;27.070;2023-09-19T02:55:28;99777.39;;;11.05;100.0
63691;BME280;49837;57.280;27.070;2023-09-19T02:56:28;99771.99;;;11.03;100.0
63691;BME280;49837;57.280;27.070;2023-09-19T02:57:29;99772.0;;;11.03;100.0
63691;BME280;49837;57.280;27.070;2023-09-19T02:58:29;99767.5;;;11.0;100.0
63691;BME280;49837;57.280;27.070;2023-09-19T02:59:32;99769.44;;;10.99;100.0
63691;BME280;49837;57.280;27.070;2023-09-19T03:00:30;99769.44;;;11.0;100.0
63691;BME280;49837;57.280;27.070;2023-09-19T03:01:31;99769.42;;;11.02;100.0
63691;BME280;49837;57.280;27.070;2023-09-19T03:02:31;99771.02;;;11.04;100.0
63691;BME280;49837;57.280;27.070;2023-09-19T03:03:31;99767.41;;;11.05;100.0
63691;BME280;49837;57.280;27.070;2023-09-19T03:04:32;99770.32;;;11.03;100.0
63691;BME280;49837;57.280;27.070;2023-09-19T03:05:32;99766.8;;;10.98;100.0
63691;BME280;49837;57.280;27.070;2023-09-19T03:06:33;99768.32;;;10.96;100.0
63691;BME280;49837;57.280;27.070;2023-09-19T03:07:33;99768.48;;;10.96;100.0
63691;BME280;49837;57.280;27.070;2023-09-19T03:08:34;99769.95;;;11.11;100.0
63691;BME280;49837;57.280;27.070;2023-09-19T03:09:34;99763.73;;;11.12;100.0
63691;BME280;49837;57.280;27.070;2023-09-19T03:10:35;99766.88;;;11.05;100.0
63691;BME280;49837;57.280;27.070;2023-09-19T03:11:35;99768.52;;;11.04;100.0
63691;BME280;49837;57.280;27.070;2023-09-19T03:12:35;99764.22;;;11.16;100.0
63691;BME280;49837;57.280;27.070;2023-09-19T03:13:36;99765.52;;;11.14;100.0
63691;BME280;49837;57.280;27.070;2023-09-19T03:14:36;99761.64;;;11.1;100.0
63691;BME280;49837;57.280;27.070;2023-09-19T03:15:41;99764.48;;;11.03;100.0
63691;BME280;49837;57.280;27.070;2023-09-19T03:16:38;99763.38;;;10.96;100.0
63691;BME280;49837;57.280;27.070;2023-09-19T03:17:43;99766.5;;;11.06;100.0
63691;BME280;49837;57.280;27.070;2023-09-19T03:18:40;99771.97;;;11.15;100.0
63691;BME280;49837;57.280;27.070;2023-09-19T03:19:41;99767.35;;;11.1;100.0
63691;BME280;49837;57.280;27.070;2023-09-19T03:20:41;99768.73;;;11.07;100.0
63691;BME280;49837;57.280;27.070;2023-09-19T03:21:42;99768.36;;;11.08;100.0
63691;BME280;49837;57.280;27.070;2023-09-19T03:22:45;99766.12;;;11.01;100.0
63691;BME280;49837;57.280;27.070;2023-09-19T03:23:43;99764.09;;;11.0;100.0
63691;BME280;49837;57.280;27.070;2023-09-19T03:24:44;99770.91;;;11.05;100.0
63691;BME280;49837;57.280;27.070;2023-09-19T03:25:44;99768.62;;;11.17;100.0
63691;BME280;49837;57.280;27.070;2023-09-19T03:26:44;99769.04;;;11.19;100.0
63691;BME280;49837;57.280;27.070;2023-09-19T03:27:45;99767.16;;;11.13;100.0
63691;BME280;49837;57.280;27.070;2023-09-19T03:28:45;99764.25;;;11.15;100.0
63691;BME280;49837;57.280;27.070;2023-09-19T03:29:46;99759.12;;;11.14;100.0
63691;BME280;49837;57.280;27.070;2023-09-19T03:30:46;99757.68;;;11.14;100.0
63691;BME280;49837;57.280;27.070;2023-09-19T03:31:47;99755.84;;;11.08;100.0
63691;BME280;49837;57.280;27.070;2023-09-19T03:32:47;99761.84;;;11.04;100.0
63691;BME280;49837;57.280;27.070;2023-09-19T03:33:47;99766.63;;;11.07;100.0
63691;BME280;49837;57.280;27.070;2023-09-19T03:34:48;99767.23;;;11.2;100.0
63691;BME280;49837;57.280;27.070;2023-09-19T03:35:52;99761.34;;;11.28;100.0
63691;BME280;49837;57.280;27.070;2023-09-19T03:36:50;99757.21;;;11.26;100.0
63691;BME280;49837;57.280;27.070;2023-09-19T03:37:50;99751.23;;;11.22;100.0
63691;BME280;49837;57.280;27.070;2023-09-19T03:38:51;99750.73;;;11.19;100.0
63691;BME280;49837;57.280;27.070;2023-09-19T03:39:51;99746.08;;;11.23;100.0
63691;BME280;49837;57.280;27.070;2023-09-19T03:40:52;99749.35;;;11.23;100.0
63691;BME280;49837;57.280;27.070;2023-09-19T03:41:52;99745.12;;;11.22;100.0
63691;BME280;49837;57.280;27.070;2023-09-19T03:42:52;99743.47;;;11.24;100.0
63691;BME280;49837;57.280;27.070;2023-09-19T03:43:53;99742.34;;;11.34;100.0
63691;BME280;49837;57.280;27.070;2023-09-19T03:44:53;99741.77;;;11.29;100.0
63691;BME280;49837;57.280;27.070;2023-09-19T03:45:54;99742.45;;;11.26;100.0
63691;BME280;49837;57.280;27.070;2023-09-19T03:46:54;99737.82;;;11.25;100.0
63691;BME280;49837;57.280;27.070;2023-09-19T03:47:55;99741.52;;;11.27;100.0
63691;BME280;49837;57.280;27.070;2023-09-19T03:48:55;99734.42;;;11.4;100.0
63691;BME280;49837;57.280;27.070;2023-09-19T03:49:55;99739.08;;;11.42;100.0
63691;BME280;49837;57.280;27.070;2023-09-19T03:50:56;99736.48;;;11.46;100.0
63691;BME280;49837;57.280;27.070;2023-09-19T03:51:56;99738.86;;;11.53;100.0
63691;BME280;49837;57.280;27.070;2023-09-19T03:52:57;99735.25;;;11.54;100.0
63691;BME280;49837;57.280;27.070;2023-09-19T03:53:57;99741.27;;;11.58;100.0
63691;BME280;49837;57.280;27.070;2023-09-19T03:54:58;99738.17;;;11.56;100.0
63691;BME280;49837;57.280;27.070;2023-09-19T03:55:58;99729.34;;;11.53;100.0
63691;BME280;49837;57.280;27.070;2023-09-19T03:56:58;99729.19;;;11.51;100.0
63691;BME280;49837;57.280;27.070;2023-09-19T03:57:59;99726.02;;;11.51;100.0
63691;BME280;49837;57.280;27.070;2023-09-19T03:58:59;99727.88;;;11.52;100.0
63691;BME280;49837;57.280;27.070;2023-09-19T04:00:00;99729.17;;;11.54;100.0
63691;BME280;49837;57.280;27.070;2023-09-19T04:01:00;99721.07;;;11.56;100.0
63691;BME280;49837;57.280;27.070;2023-09-19T04:02:01;99726.27;;;11.59;100.0
63691;BME280;49837;57.280;27.070;2023-09-19T04:03:02;99722.92;;;11.59;100.0
63691;BME280;49837;57.280;27.070;2023-09-19T04:04:02;99719.47;;;11.6;100.0
63691;BME280;49837;57.280;27.070;2023-09-19T04:05:03;99718.09;;;11.62;100.0
63691;BME280;49837;57.280;27.070;2023-09-19T04:06:03;99716.92;;;11.65;100.0
63691;BME280;49837;57.280;27.070;2023-09-19T04:07:03;99717.2;;;11.64;100.0
63691;BME280;49837;57.280;27.070;2023-09-19T04:08:04;99718.73;;;11.64;100.0
63691;BME280;49837;57.280;27.070;2023-09-19T04:09:05;99719.03;;;11.64;100.0
63691;BME280;49837;57.280;27.070;2023-09-19T04:10:05;99722.53;;;11.71;100.0
63691;BME280;49837;57.280;27.070;2023-09-19T04:11:05;99717.05;;;11.78;100.0
63691;BME280;49837;57.280;27.070;2023-09-19T04:12:07;99717.95;;;11.79;100.0
63691;BME280;49837;57.280;27.070;2023-09-19T04:13:06;99716.38;;;11.79;100.0
63691;BME280;49837;57.280;27.070;2023-09-19T04:14:06;99718.55;;;11.78;100.0
63691;BME280;49837;57.280;27.070;2023-09-19T04:15:07;99716.55;;;11.79;100.0
63691;BME280;49837;57.280;27.070;2023-09-19T04:16:07;99720.27;;;11.82;100.0
63691;BME280;49837;57.280;27.070;2023-09-19T04:17:08;99714.62;;;11.8;100.0
63691;BME280;49837;57.280;27.070;2023-09-19T04:18:08;99712.53;;;11.87;100.0
63691;BME280;49837;57.280;27.070;2023-09-19T04:19:09;99715.87;;;11.95;100.0
63691;BME280;49837;57.280;27.070;2023-09-19T04:20:10;99716.09;;;11.91;100.0
63691;BME280;49837;57.280;27.070;2023-09-19T04:21:09;99714.89;;;11.92;100.0
63691;BME280;49837;57.280;27.070;2023-09-19T04:22:10;99713.13;;;11.94;100.0
63691;BME280;49837;57.280;27.070;2023-09-19T04:23:10;99707.89;;;11.93;100.0
63691;BME280;49837;57.280;27.070;2023-09-19T04:24:11;99708.3;;;11.96;100.0
63691;BME280;49837;57.280;27.070;2023-09-19T04:25:12;99703.12;;;11.92;100.0
63691;BME280;49837;57.280;27.070;2023-09-19T04:26:12;99703.38;;;11.93;100.0
63691;BME280;49837;57.280;27.070;2023-09-19T04:27:12;99703.77;;;11.94;100.0
63691;BME280;49837;57.280;27.070;2023-09-19T04:28:13;99699.92;;;11.98;100.0
63691;BME280;49837;57.280;27.070;2023-09-19T04:29:13;99699.88;;;11.95;100.0
63691;BME280;49837;57.280;27.070;2023-09-19T04:30:13;99699.86;;;11.98;100.0
63691;BME280;49837;57.280;27.070;2023-09-19T04:31:14;99698.0;;;12.02;100.0
63691;BME280;49837;57.280;27.070;2023-09-19T04:32:14;99694.03;;;12.15;100.0
63691;BME280;49837;57.280;27.070;2023-09-19T04:33:15;99694.43;;;12.21;100.0
63691;BME280;49837;57.280;27.070;2023-09-19T04:34:15;99694.46;;;12.28;100.0
63691;BME280;49837;57.280;27.070;2023-09-19T04:35:16;99695.09;;;12.37;100.0
63691;BME280;49837;57.280;27.070;2023-09-19T04:36:16;99695.23;;;12.45;100.0
63691;BME280;49837;57.280;27.070;2023-09-19T04:37:17;99689.33;;;12.44;100.0
63691;BME280;49837;57.280;27.070;2023-09-19T04:38:20;99686.7;;;12.37;100.0
63691;BME280;49837;57.280;27.070;2023-09-19T04:39:17;99686.8;;;12.41;100.0
63691;BME280;49837;57.280;27.070;2023-09-19T04:40:18;99684.88;;;12.45;100.0
63691;BME280;49837;57.280;27.070;2023-09-19T04:41:18;99686.7;;;12.48;100.0
63691;BME280;49837;57.280;27.070;2023-09-19T04:42:19;99685.22;;;12.52;100.0
63691;BME280;49837;57.280;27.070;2023-09-19T04:43:19;99685.78;;;12.58;100.0
63691;BME280;49837;57.280;27.070;2023-09-19T04:44:20;99687.78;;;12.53;100.0
63691;BME280;49837;57.280;27.070;2023-09-19T04:45:20;99688.53;;;12.6;100.0
63691;BME280;49837;57.280;27.070;2023-09-19T04:46:21;99686.73;;;12.59;100.0
63691;BME280;49837;57.280;27.070;2023-09-19T04:47:21;99685.08;;;12.6;100.0
63691;BME280;49837;57.280;27.070;2023-09-19T04:48:22;99680.48;;;12.51;100.0
63691;BME280;49837;57.280;27.070;2023-09-19T04:49:22;99680.8;;;12.49;100.0
63691;BME280;49837;57.280;27.070;2023-09-19T04:50:22;99678.28;;;12.44;100.0
63691;BME280;49837;57.280;27.070;2023-09-19T04:51:23;99680.52;;;12.48;100.0
63691;BME280;49837;57.280;27.070;2023-09-19T04:52:23;99680.59;;;12.5;100.0
63691;BME280;49837;57.280;27.070;2023-09-19T04:53:24;99682.87;;;12.5;100.0
63691;BME280;49837;57.280;27.070;2023-09-19T04:54:24;99675.79;;;12.4;100.0
63691;BME280;49837;57.280;27.070;2023-09-19T04:55:25;99676.95;;;12.35;100.0
63691;BME280;49837;57.280;27.070;2023-09-19T04:56:25;99674.6;;;12.39;100.0
63691;BME280;49837;57.280;27.070;2023-09-19T04:57:25;99676.1;;;12.42;100.0
63691;BME280;49837;57.280;27.070;2023-09-19T04:58:26;99670.08;;;12.42;100.0
63691;BME280;49837;57.280;27.070;2023-09-19T04:59:26;99667.75;;;12.39;100.0
63691;BME280;49837;57.280;27.070;2023-09-19T05:00:27;99666.14;;;12.39;100.0
63691;BME280;49837;57.280;27.070;2023-09-19T05:01:27;99662.43;;;12.36;100.0
63691;BME280;49837;57.280;27.070;2023-09-19T05:02:29;99661.2;;;12.41;100.0
63691;BME280;49837;57.280;27.070;2023-09-19T05:03:28;99660.95;;;12.45;100.0
63691;BME280;49837;57.280;27.070;2023-09-19T05:04:28;99658.89;;;12.52;100.0
63691;BME280;49837;57.280;27.070;2023-09-19T05:05:29;99657.51;;;12.58;100.0
63691;BME280;49837;57.280;27.070;2023-09-19T05:06:30;99658.88;;;12.55;100.0
63691;BME280;49837;57.280;27.070;2023-09-19T05:07:30;99654.06;;;12.6;100.0
63691;BME280;49837;57.280;27.070;2023-09-19T05:08:31;99646.78;;;12.6;100.0
63691;BME280;49837;57.280;27.070;2023-09-19T05:09:31;99657.5;;;12.56;100.0
63691;BME280;49837;57.280;27.070;2023-09-19T05:10:32;99651.8;;;12.62;100.0
63691;BME280;49837;57.280;27.070;2023-09-19T05:11:32;99653.09;;;12.58;100.0
63691;BME280;49837;57.280;27.070;2023-09-19T05:12:34;99647.2;;;12.78;100.0
63691;BME280;49837;57.280;27.070;2023-09-19T05:13:33;99649.92;;;12.82;100.0
63691;BME280;49837;57.280;27.070;2023-09-19T05:14:34;99650.3;;;12.88;100.0
63691;BME280;49837;57.280;27.070;2023-09-19T05:15:34;99649.59;;;12.89;100.0
63691;BME280;49837;57.280;27.070;2023-09-19T05:16:34;99651.92;;;12.97;100.0
63691;BME280;49837;57.280;27.070;2023-09-19T05:17:35;99652.06;;;13.01;100.0
63691;BME280;49837;57.280;27.070;2023-09-19T05:18:35;99647.5;;;13.04;100.0
63691;BME280;49837;57.280;27.070;2023-09-19T05:19:36;99653.84;;;13.16;100.0
63691;BME280;49837;57.280;27.070;2023-09-19T05:20:36;99650.97;;;13.27;100.0
63691;BME280;49837;57.280;27.070;2023-09-19T05:21:37;99646.85;;;13.29;100.0
63691;BME280;49837;57.280;27.070;2023-09-19T05:22:37;99650.42;;;13.29;100.0
63691;BME280;49837;57.280;27.070;2023-09-19T05:23:38;99646.91;;;13.33;100.0
63691;BME280;49837;57.280;27.070;2023-09-19T05:24:38;99646.3;;;13.4;100.0
63691;BME280;49837;57.280;27.070;2023-09-19T05:25:40;99644.79;;;13.46;100.0
63691;BME280;49837;57.280;27.070;2023-09-19T05:26:40;99645.68;;;13.53;100.0
63691;BME280;49837;57.280;27.070;2023-09-19T05:27:40;99644.67;;;13.55;100.0
63691;BME280;49837;57.280;27.070;2023-09-19T05:28:40;99645.45;;;13.63;100.0
63691;BME280;49837;57.280;27.070;2023-09-19T05:29:41;99643.22;;;13.56;100.0
63691;BME280;49837;57.280;27.070;2023-09-19T05:30:41;99639.6;;;13.56;100.0
63691;BME280;49837;57.280;27.070;2023-09-19T05:31:42;99637.73;;;13.59;100.0
63691;BME280;49837;57.280;27.070;2023-09-19T05:32:43;99637.28;;;13.64;100.0
63691;BME280;49837;57.280;27.070;2023-09-19T05:33:43;99637.59;;;13.69;100.0
63691;BME280;49837;57.280;27.070;2023-09-19T05:34:44;99633.59;;;13.72;100.0
63691;BME280;49837;57.280;27.070;2023-09-19T05:35:44;99630.7;;;13.78;100.0
63691;BME280;49837;57.280;27.070;2023-09-19T05:36:45;99629.27;;;13.84;100.0
63691;BME280;49837;57.280;27.070;2023-09-19T05:37:45;99631.51;;;13.83;100.0
63691;BME280;49837;57.280;27.070;2023-09-19T05:38:45;99629.75;;;13.91;100.0
63691;BME280;49837;57.280;27.070;2023-09-19T05:39:46;99631.34;;;13.97;100.0
63691;BME280;49837;57.280;27.070;2023-09-19T05:40:46;99630.36;;;14.09;100.0
63691;BME280;49837;57.280;27.070;2023-09-19T05:41:47;99627.42;;;14.15;100.0
63691;BME280;49837;57.280;27.070;2023-09-19T05:42:47;99626.08;;;14.18;100.0